Terminal Aerodrome Forecast
Issued by NWS

Current Version | Previous Version | Text Only | Print | Product List | Glossary On
Versions: 1 2 3 4 5 6 7 8 9 10 11 12 13 14
000
FTUS41 KLWX 252005 AAA
TAFMTN
TAF AMD
KMTN 252005Z 2520/2618 15015G20KT P6SM SCT050
     FM252345 18009KT P6SM FEW250
     FM261500 20010G18KT P6SM FEW050 SCT100
     FM261700 18010G20KT P6SM SCT050 BKN100=

USA.gov is the U.S. government's official web portal to all federal, state and local government web resources and services.